sensor_id;sensor_type;location;lat;lon;timestamp;P1;durP1;ratioP1;P2;durP2;ratioP2
32327;SDS011;18806;51.558;5.100;2022-08-16T00:02:28;15.70;;;12.47;;
32327;SDS011;18806;51.558;5.100;2022-08-16T00:04:56;14.10;;;12.60;;
32327;SDS011;18806;51.558;5.100;2022-08-16T00:07:25;15.95;;;12.63;;
32327;SDS011;18806;51.558;5.100;2022-08-16T00:09:55;14.50;;;13.00;;
32327;SDS011;18806;51.558;5.100;2022-08-16T00:12:22;14.68;;;12.60;;
32327;SDS011;18806;51.558;5.100;2022-08-16T00:14:51;14.07;;;12.57;;
32327;SDS011;18806;51.558;5.100;2022-08-16T00:17:22;15.13;;;12.93;;
32327;SDS011;18806;51.558;5.100;2022-08-16T00:19:49;13.90;;;12.48;;
32327;SDS011;18806;51.558;5.100;2022-08-16T00:22:19;13.60;;;12.18;;
32327;SDS011;18806;51.558;5.100;2022-08-16T00:24:51;14.82;;;13.25;;
32327;SDS011;18806;51.558;5.100;2022-08-16T00:27:19;14.27;;;12.83;;
32327;SDS011;18806;51.558;5.100;2022-08-16T00:29:46;14.98;;;13.30;;
32327;SDS011;18806;51.558;5.100;2022-08-16T00:32:34;16.02;;;14.32;;
32327;SDS011;18806;51.558;5.100;2022-08-16T00:35:05;16.00;;;14.30;;
32327;SDS011;18806;51.558;5.100;2022-08-16T00:37:40;17.70;;;15.90;;
32327;SDS011;18806;51.558;5.100;2022-08-16T00:40:26;16.73;;;15.02;;
32327;SDS011;18806;51.558;5.100;2022-08-16T00:43:07;18.92;;;16.08;;
32327;SDS011;18806;51.558;5.100;2022-08-16T00:46:12;17.33;;;15.50;;
32327;SDS011;18806;51.558;5.100;2022-08-16T00:49:04;17.15;;;15.30;;
32327;SDS011;18806;51.558;5.100;2022-08-16T00:51:43;18.40;;;15.63;;
32327;SDS011;18806;51.558;5.100;2022-08-16T00:54:21;19.13;;;16.05;;
32327;SDS011;18806;51.558;5.100;2022-08-16T00:56:49;18.35;;;16.40;;
32327;SDS011;18806;51.558;5.100;2022-08-16T00:59:25;18.65;;;16.65;;
32327;SDS011;18806;51.558;5.100;2022-08-16T01:01:54;18.00;;;16.10;;
32327;SDS011;18806;51.558;5.100;2022-08-16T01:04:24;18.40;;;16.23;;
32327;SDS011;18806;51.558;5.100;2022-08-16T01:06:56;17.58;;;15.68;;
32327;SDS011;18806;51.558;5.100;2022-08-16T01:09:28;17.23;;;15.43;;
32327;SDS011;18806;51.558;5.100;2022-08-16T01:11:59;18.23;;;15.57;;
32327;SDS011;18806;51.558;5.100;2022-08-16T01:14:28;18.00;;;15.88;;
32327;SDS011;18806;51.558;5.100;2022-08-16T01:16:56;18.33;;;16.15;;
32327;SDS011;18806;51.558;5.100;2022-08-16T01:19:29;18.67;;;16.05;;
32327;SDS011;18806;51.558;5.100;2022-08-16T01:26:03;17.52;;;15.70;;
32327;SDS011;18806;51.558;5.100;2022-08-16T01:28:03;17.35;;;15.57;;
32327;SDS011;18806;51.558;5.100;2022-08-16T01:30:34;17.48;;;15.68;;
32327;SDS011;18806;51.558;5.100;2022-08-16T01:33:15;17.63;;;15.77;;
32327;SDS011;18806;51.558;5.100;2022-08-16T01:35:46;17.30;;;15.53;;
32327;SDS011;18806;51.558;5.100;2022-08-16T01:38:26;18.30;;;15.50;;
32327;SDS011;18806;51.558;5.100;2022-08-16T01:40:56;16.33;;;14.60;;
32327;SDS011;18806;51.558;5.100;2022-08-16T01:43:30;17.92;;;15.32;;
32327;SDS011;18806;51.558;5.100;2022-08-16T01:45:58;17.27;;;15.20;;
32327;SDS011;18806;51.558;5.100;2022-08-16T01:48:46;17.83;;;15.07;;
32327;SDS011;18806;51.558;5.100;2022-08-16T01:51:15;17.70;;;14.77;;
32327;SDS011;18806;51.558;5.100;2022-08-16T01:53:44;17.63;;;14.95;;
32327;SDS011;18806;51.558;5.100;2022-08-16T01:56:21;18.20;;;15.40;;
32327;SDS011;18806;51.558;5.100;2022-08-16T01:58:51;16.80;;;15.07;;
32327;SDS011;18806;51.558;5.100;2022-08-16T02:01:19;16.70;;;14.82;;
32327;SDS011;18806;51.558;5.100;2022-08-16T02:03:47;17.88;;;15.25;;
32327;SDS011;18806;51.558;5.100;2022-08-16T02:06:17;17.15;;;14.60;;
32327;SDS011;18806;51.558;5.100;2022-08-16T02:09:00;16.17;;;14.52;;
32327;SDS011;18806;51.558;5.100;2022-08-16T02:11:30;16.10;;;14.45;;
32327;SDS011;18806;51.558;5.100;2022-08-16T02:14:13;16.58;;;14.77;;
32327;SDS011;18806;51.558;5.100;2022-08-16T02:16:46;16.85;;;15.07;;
32327;SDS011;18806;51.558;5.100;2022-08-16T02:19:17;18.65;;;14.73;;
32327;SDS011;18806;51.558;5.100;2022-08-16T02:21:48;16.70;;;14.95;;
32327;SDS011;18806;51.558;5.100;2022-08-16T02:24:39;16.70;;;15.00;;
32327;SDS011;18806;51.558;5.100;2022-08-16T02:27:11;16.77;;;14.93;;
32327;SDS011;18806;51.558;5.100;2022-08-16T02:29:44;16.73;;;15.03;;
32327;SDS011;18806;51.558;5.100;2022-08-16T02:32:12;17.27;;;15.48;;
32327;SDS011;18806;51.558;5.100;2022-08-16T02:34:59;17.38;;;14.95;;
32327;SDS011;18806;51.558;5.100;2022-08-16T02:37:27;16.90;;;15.00;;
32327;SDS011;18806;51.558;5.100;2022-08-16T02:40:14;16.65;;;14.45;;
32327;SDS011;18806;51.558;5.100;2022-08-16T02:42:45;16.33;;;14.18;;
32327;SDS011;18806;51.558;5.100;2022-08-16T02:45:16;16.88;;;15.05;;
32327;SDS011;18806;51.558;5.100;2022-08-16T02:47:44;17.90;;;14.68;;
32327;SDS011;18806;51.558;5.100;2022-08-16T02:50:27;17.93;;;14.60;;
32327;SDS011;18806;51.558;5.100;2022-08-16T02:53:15;16.60;;;14.77;;
32327;SDS011;18806;51.558;5.100;2022-08-16T02:55:48;16.10;;;14.40;;
32327;SDS011;18806;51.558;5.100;2022-08-16T02:58:19;16.55;;;14.45;;
32327;SDS011;18806;51.558;5.100;2022-08-16T03:00:53;18.73;;;14.85;;
32327;SDS011;18806;51.558;5.100;2022-08-16T03:03:25;17.23;;;14.63;;
32327;SDS011;18806;51.558;5.100;2022-08-16T03:06:16;16.40;;;14.70;;
32327;SDS011;18806;51.558;5.100;2022-08-16T03:09:06;16.98;;;14.90;;
32327;SDS011;18806;51.558;5.100;2022-08-16T03:11:38;16.48;;;14.77;;
32327;SDS011;18806;51.558;5.100;2022-08-16T03:14:05;16.80;;;15.10;;
32327;SDS011;18806;51.558;5.100;2022-08-16T03:16:36;16.65;;;14.85;;
32327;SDS011;18806;51.558;5.100;2022-08-16T03:19:23;16.65;;;14.85;;
32327;SDS011;18806;51.558;5.100;2022-08-16T03:22:12;16.60;;;14.83;;
32327;SDS011;18806;51.558;5.100;2022-08-16T03:24:55;19.70;;;16.23;;
32327;SDS011;18806;51.558;5.100;2022-08-16T03:27:27;17.15;;;15.00;;
32327;SDS011;18806;51.558;5.100;2022-08-16T03:29:56;17.17;;;15.27;;
32327;SDS011;18806;51.558;5.100;2022-08-16T03:32:23;17.60;;;15.80;;
32327;SDS011;18806;51.558;5.100;2022-08-16T03:34:51;17.92;;;16.05;;
32327;SDS011;18806;51.558;5.100;2022-08-16T03:37:21;18.92;;;16.50;;
32327;SDS011;18806;51.558;5.100;2022-08-16T03:39:50;17.85;;;16.05;;
32327;SDS011;18806;51.558;5.100;2022-08-16T03:42:22;18.70;;;16.70;;
32327;SDS011;18806;51.558;5.100;2022-08-16T03:44:57;18.67;;;16.77;;
32327;SDS011;18806;51.558;5.100;2022-08-16T03:47:30;18.95;;;16.23;;
32327;SDS011;18806;51.558;5.100;2022-08-16T03:49:59;19.00;;;17.00;;
32327;SDS011;18806;51.558;5.100;2022-08-16T03:52:31;20.75;;;17.10;;
32327;SDS011;18806;51.558;5.100;2022-08-16T03:55:00;18.67;;;16.77;;
32327;SDS011;18806;51.558;5.100;2022-08-16T03:57:28;19.05;;;17.05;;
32327;SDS011;18806;51.558;5.100;2022-08-16T04:00:15;20.63;;;17.42;;
32327;SDS011;18806;51.558;5.100;2022-08-16T04:03:03;20.63;;;17.70;;
32327;SDS011;18806;51.558;5.100;2022-08-16T04:05:34;20.17;;;18.07;;
32327;SDS011;18806;51.558;5.100;2022-08-16T04:08:05;20.63;;;18.30;;
32327;SDS011;18806;51.558;5.100;2022-08-16T04:10:49;20.35;;;17.42;;
32327;SDS011;18806;51.558;5.100;2022-08-16T04:13:17;20.77;;;18.60;;
32327;SDS011;18806;51.558;5.100;2022-08-16T04:15:46;21.20;;;18.97;;
32327;SDS011;18806;51.558;5.100;2022-08-16T04:18:18;21.17;;;18.92;;
32327;SDS011;18806;51.558;5.100;2022-08-16T04:20:47;21.90;;;19.60;;
32327;SDS011;18806;51.558;5.100;2022-08-16T04:23:14;21.70;;;19.30;;
32327;SDS011;18806;51.558;5.100;2022-08-16T04:25:42;22.57;;;20.17;;
32327;SDS011;18806;51.558;5.100;2022-08-16T04:28:12;22.77;;;19.77;;
32327;SDS011;18806;51.558;5.100;2022-08-16T04:31:05;22.83;;;20.52;;
32327;SDS011;18806;51.558;5.100;2022-08-16T04:33:36;23.13;;;20.63;;
32327;SDS011;18806;51.558;5.100;2022-08-16T04:36:16;22.65;;;20.33;;
32327;SDS011;18806;51.558;5.100;2022-08-16T04:38:45;22.37;;;19.93;;
32327;SDS011;18806;51.558;5.100;2022-08-16T04:41:15;23.85;;;21.15;;
32327;SDS011;18806;51.558;5.100;2022-08-16T04:43:42;23.88;;;21.30;;
32327;SDS011;18806;51.558;5.100;2022-08-16T04:46:11;23.40;;;20.90;;
32327;SDS011;18806;51.558;5.100;2022-08-16T04:49:01;23.23;;;20.83;;
32327;SDS011;18806;51.558;5.100;2022-08-16T04:51:28;24.42;;;21.77;;
32327;SDS011;18806;51.558;5.100;2022-08-16T04:54:01;25.60;;;21.15;;
32327;SDS011;18806;51.558;5.100;2022-08-16T04:56:29;24.13;;;21.57;;
32327;SDS011;18806;51.558;5.100;2022-08-16T04:58:59;24.77;;;21.88;;
32327;SDS011;18806;51.558;5.100;2022-08-16T05:01:26;25.15;;;21.85;;
32327;SDS011;18806;51.558;5.100;2022-08-16T05:04:14;24.95;;;21.90;;
32327;SDS011;18806;51.558;5.100;2022-08-16T05:06:44;24.00;;;21.57;;
32327;SDS011;18806;51.558;5.100;2022-08-16T05:09:12;24.45;;;21.25;;
32327;SDS011;18806;51.558;5.100;2022-08-16T05:11:42;23.23;;;20.83;;
32327;SDS011;18806;51.558;5.100;2022-08-16T05:14:09;23.75;;;21.23;;
32327;SDS011;18806;51.558;5.100;2022-08-16T05:16:45;23.73;;;21.23;;
32327;SDS011;18806;51.558;5.100;2022-08-16T05:19:17;23.88;;;21.35;;
32327;SDS011;18806;51.558;5.100;2022-08-16T05:21:44;24.85;;;21.45;;
32327;SDS011;18806;51.558;5.100;2022-08-16T05:24:11;24.23;;;21.80;;
32327;SDS011;18806;51.558;5.100;2022-08-16T05:26:38;24.08;;;21.58;;
32327;SDS011;18806;51.558;5.100;2022-08-16T05:29:08;23.95;;;21.38;;
32327;SDS011;18806;51.558;5.100;2022-08-16T05:31:40;23.15;;;20.67;;
32327;SDS011;18806;51.558;5.100;2022-08-16T05:34:13;23.67;;;20.90;;
32327;SDS011;18806;51.558;5.100;2022-08-16T05:36:48;24.25;;;21.65;;
32327;SDS011;18806;51.558;5.100;2022-08-16T05:39:22;24.23;;;21.67;;
32327;SDS011;18806;51.558;5.100;2022-08-16T05:41:51;24.23;;;21.63;;
32327;SDS011;18806;51.558;5.100;2022-08-16T05:44:19;24.83;;;22.15;;
32327;SDS011;18806;51.558;5.100;2022-08-16T05:46:50;24.67;;;21.97;;
32327;SDS011;18806;51.558;5.100;2022-08-16T05:49:19;24.25;;;21.52;;
32327;SDS011;18806;51.558;5.100;2022-08-16T05:51:48;25.08;;;22.48;;
32327;SDS011;18806;51.558;5.100;2022-08-16T05:54:16;25.25;;;22.50;;
32327;SDS011;18806;51.558;5.100;2022-08-16T05:56:50;24.85;;;22.30;;
32327;SDS011;18806;51.558;5.100;2022-08-16T05:59:18;25.93;;;23.00;;
32327;SDS011;18806;51.558;5.100;2022-08-16T06:01:47;24.67;;;22.17;;
32327;SDS011;18806;51.558;5.100;2022-08-16T06:04:18;26.20;;;23.50;;
32327;SDS011;18806;51.558;5.100;2022-08-16T06:07:02;27.65;;;24.30;;
32327;SDS011;18806;51.558;5.100;2022-08-16T06:09:32;27.60;;;24.70;;
32327;SDS011;18806;51.558;5.100;2022-08-16T06:12:10;27.87;;;24.93;;
32327;SDS011;18806;51.558;5.100;2022-08-16T06:14:52;22.58;;;19.70;;
32327;SDS011;18806;51.558;5.100;2022-08-16T06:17:34;24.30;;;21.80;;
32327;SDS011;18806;51.558;5.100;2022-08-16T06:20:10;20.08;;;17.88;;
32327;SDS011;18806;51.558;5.100;2022-08-16T06:22:39;22.63;;;18.75;;
32327;SDS011;18806;51.558;5.100;2022-08-16T06:25:10;23.02;;;19.60;;
32327;SDS011;18806;51.558;5.100;2022-08-16T06:27:40;25.88;;;23.08;;
32327;SDS011;18806;51.558;5.100;2022-08-16T06:30:22;23.98;;;19.85;;
32327;SDS011;18806;51.558;5.100;2022-08-16T06:32:54;21.27;;;18.65;;
32327;SDS011;18806;51.558;5.100;2022-08-16T06:35:21;24.55;;;21.58;;
32327;SDS011;18806;51.558;5.100;2022-08-16T06:37:49;20.50;;;18.30;;
32327;SDS011;18806;51.558;5.100;2022-08-16T06:40:17;22.13;;;19.20;;
32327;SDS011;18806;51.558;5.100;2022-08-16T06:42:45;21.23;;;17.85;;
32327;SDS011;18806;51.558;5.100;2022-08-16T06:45:15;26.33;;;23.52;;
32327;SDS011;18806;51.558;5.100;2022-08-16T06:47:57;21.30;;;18.77;;
32327;SDS011;18806;51.558;5.100;2022-08-16T06:50:27;24.13;;;19.30;;
32327;SDS011;18806;51.558;5.100;2022-08-16T06:52:56;21.13;;;18.85;;
32327;SDS011;18806;51.558;5.100;2022-08-16T06:55:34;20.57;;;18.43;;
32327;SDS011;18806;51.558;5.100;2022-08-16T06:58:04;23.20;;;20.70;;
32327;SDS011;18806;51.558;5.100;2022-08-16T07:00:46;22.93;;;19.40;;
32327;SDS011;18806;51.558;5.100;2022-08-16T07:03:14;24.08;;;21.40;;
32327;SDS011;18806;51.558;5.100;2022-08-16T07:05:57;22.35;;;19.20;;
32327;SDS011;18806;51.558;5.100;2022-08-16T07:08:26;26.48;;;23.20;;
32327;SDS011;18806;51.558;5.100;2022-08-16T07:10:53;21.10;;;18.85;;
32327;SDS011;18806;51.558;5.100;2022-08-16T07:13:21;25.50;;;22.13;;
32327;SDS011;18806;51.558;5.100;2022-08-16T07:16:12;22.52;;;19.20;;
32327;SDS011;18806;51.558;5.100;2022-08-16T07:18:43;20.48;;;18.27;;
32327;SDS011;18806;51.558;5.100;2022-08-16T07:21:27;21.97;;;19.63;;
32327;SDS011;18806;51.558;5.100;2022-08-16T07:24:15;21.67;;;19.08;;
32327;SDS011;18806;51.558;5.100;2022-08-16T07:26:57;22.60;;;19.88;;
32327;SDS011;18806;51.558;5.100;2022-08-16T07:29:26;23.60;;;19.17;;
32327;SDS011;18806;51.558;5.100;2022-08-16T07:32:00;23.13;;;20.48;;
32327;SDS011;18806;51.558;5.100;2022-08-16T07:34:27;20.60;;;18.23;;
32327;SDS011;18806;51.558;5.100;2022-08-16T07:37:03;21.88;;;19.02;;
32327;SDS011;18806;51.558;5.100;2022-08-16T07:39:31;20.70;;;18.60;;
32327;SDS011;18806;51.558;5.100;2022-08-16T07:41:59;23.38;;;18.92;;
32327;SDS011;18806;51.558;5.100;2022-08-16T07:44:27;26.95;;;23.13;;
32327;SDS011;18806;51.558;5.100;2022-08-16T07:47:16;24.47;;;21.87;;
32327;SDS011;18806;51.558;5.100;2022-08-16T07:49:43;24.60;;;20.00;;
32327;SDS011;18806;51.558;5.100;2022-08-16T07:52:23;23.63;;;20.38;;
32327;SDS011;18806;51.558;5.100;2022-08-16T07:54:55;20.90;;;18.70;;
32327;SDS011;18806;51.558;5.100;2022-08-16T07:57:24;20.75;;;17.95;;
32327;SDS011;18806;51.558;5.100;2022-08-16T07:59:55;19.73;;;17.27;;
32327;SDS011;18806;51.558;5.100;2022-08-16T08:02:23;21.15;;;17.48;;
32327;SDS011;18806;51.558;5.100;2022-08-16T08:04:53;20.80;;;18.60;;
32327;SDS011;18806;51.558;5.100;2022-08-16T08:07:26;26.17;;;23.45;;
32327;SDS011;18806;51.558;5.100;2022-08-16T08:09:57;21.98;;;18.30;;
32327;SDS011;18806;51.558;5.100;2022-08-16T08:12:25;22.63;;;18.43;;
32327;SDS011;18806;51.558;5.100;2022-08-16T08:15:01;25.45;;;22.48;;
32327;SDS011;18806;51.558;5.100;2022-08-16T08:17:29;21.80;;;17.70;;
32327;SDS011;18806;51.558;5.100;2022-08-16T08:20:10;22.63;;;20.23;;
32327;SDS011;18806;51.558;5.100;2022-08-16T08:22:46;22.67;;;18.73;;
32327;SDS011;18806;51.558;5.100;2022-08-16T08:25:14;26.38;;;23.10;;
32327;SDS011;18806;51.558;5.100;2022-08-16T08:27:44;23.17;;;19.38;;
32327;SDS011;18806;51.558;5.100;2022-08-16T08:30:12;22.17;;;18.77;;
32327;SDS011;18806;51.558;5.100;2022-08-16T08:32:59;21.83;;;17.53;;
32327;SDS011;18806;51.558;5.100;2022-08-16T08:35:27;22.92;;;20.00;;
32327;SDS011;18806;51.558;5.100;2022-08-16T08:37:55;23.17;;;17.98;;
32327;SDS011;18806;51.558;5.100;2022-08-16T08:40:22;22.00;;;18.90;;
32327;SDS011;18806;51.558;5.100;2022-08-16T08:42:53;19.77;;;15.93;;
32327;SDS011;18806;51.558;5.100;2022-08-16T08:45:26;18.45;;;15.82;;
32327;SDS011;18806;51.558;5.100;2022-08-16T08:48:14;20.00;;;17.30;;
32327;SDS011;18806;51.558;5.100;2022-08-16T08:51:03;18.75;;;15.85;;
32327;SDS011;18806;51.558;5.100;2022-08-16T08:53:33;17.35;;;14.93;;
32327;SDS011;18806;51.558;5.100;2022-08-16T08:56:02;18.90;;;15.70;;
32327;SDS011;18806;51.558;5.100;2022-08-16T08:58:50;16.47;;;14.00;;
32327;SDS011;18806;51.558;5.100;2022-08-16T09:01:31;18.83;;;15.60;;
32327;SDS011;18806;51.558;5.100;2022-08-16T09:04:08;19.45;;;17.35;;
32327;SDS011;18806;51.558;5.100;2022-08-16T09:06:46;23.42;;;18.30;;
32327;SDS011;18806;51.558;5.100;2022-08-16T09:09:27;14.63;;;12.85;;
32327;SDS011;18806;51.558;5.100;2022-08-16T09:11:59;15.67;;;14.00;;
32327;SDS011;18806;51.558;5.100;2022-08-16T09:14:31;14.25;;;12.25;;
32327;SDS011;18806;51.558;5.100;2022-08-16T09:16:59;13.65;;;12.18;;
32327;SDS011;18806;51.558;5.100;2022-08-16T09:19:46;13.85;;;11.95;;
32327;SDS011;18806;51.558;5.100;2022-08-16T09:22:21;15.15;;;11.75;;
32327;SDS011;18806;51.558;5.100;2022-08-16T09:24:53;18.45;;;14.07;;
32327;SDS011;18806;51.558;5.100;2022-08-16T09:27:36;14.15;;;10.88;;
32327;SDS011;18806;51.558;5.100;2022-08-16T09:30:22;15.20;;;11.38;;
32327;SDS011;18806;51.558;5.100;2022-08-16T09:33:08;12.15;;;9.70;;
32327;SDS011;18806;51.558;5.100;2022-08-16T09:35:39;12.95;;;11.25;;
32327;SDS011;18806;51.558;5.100;2022-08-16T09:38:08;12.70;;;9.80;;
32327;SDS011;18806;51.558;5.100;2022-08-16T09:40:57;11.57;;;9.20;;
32327;SDS011;18806;51.558;5.100;2022-08-16T09:43:24;12.45;;;9.30;;
32327;SDS011;18806;51.558;5.100;2022-08-16T09:46:12;11.67;;;8.73;;
32327;SDS011;18806;51.558;5.100;2022-08-16T09:48:59;10.48;;;8.30;;
32327;SDS011;18806;51.558;5.100;2022-08-16T09:51:30;11.88;;;9.05;;
32327;SDS011;18806;51.558;5.100;2022-08-16T09:54:03;10.07;;;8.05;;
32327;SDS011;18806;51.558;5.100;2022-08-16T09:56:32;9.60;;;8.48;;
32327;SDS011;18806;51.558;5.100;2022-08-16T09:59:00;12.43;;;9.37;;
32327;SDS011;18806;51.558;5.100;2022-08-16T10:01:35;10.27;;;8.07;;
32327;SDS011;18806;51.558;5.100;2022-08-16T10:04:09;11.35;;;8.27;;
32327;SDS011;18806;51.558;5.100;2022-08-16T10:06:56;12.60;;;7.40;;
32327;SDS011;18806;51.558;5.100;2022-08-16T10:09:23;10.60;;;7.22;;
32327;SDS011;18806;51.558;5.100;2022-08-16T10:12:14;12.20;;;9.02;;
32327;SDS011;18806;51.558;5.100;2022-08-16T10:15:08;11.32;;;8.48;;
32327;SDS011;18806;51.558;5.100;2022-08-16T10:17:41;10.73;;;8.02;;
32327;SDS011;18806;51.558;5.100;2022-08-16T10:20:08;9.27;;;6.93;;
32327;SDS011;18806;51.558;5.100;2022-08-16T10:22:44;10.55;;;8.27;;
32327;SDS011;18806;51.558;5.100;2022-08-16T10:25:11;11.98;;;8.00;;
32327;SDS011;18806;51.558;5.100;2022-08-16T10:28:02;12.43;;;8.70;;
32327;SDS011;18806;51.558;5.100;2022-08-16T10:30:52;8.98;;;6.80;;
32327;SDS011;18806;51.558;5.100;2022-08-16T10:33:27;9.15;;;6.38;;
32327;SDS011;18806;51.558;5.100;2022-08-16T10:36:00;10.60;;;7.15;;
32327;SDS011;18806;51.558;5.100;2022-08-16T10:38:29;9.63;;;6.40;;
32327;SDS011;18806;51.558;5.100;2022-08-16T10:41:01;9.30;;;6.50;;
32327;SDS011;18806;51.558;5.100;2022-08-16T10:43:32;10.95;;;7.45;;
32327;SDS011;18806;51.558;5.100;2022-08-16T10:46:34;10.13;;;7.22;;
32327;SDS011;18806;51.558;5.100;2022-08-16T10:49:18;9.97;;;6.97;;
32327;SDS011;18806;51.558;5.100;2022-08-16T10:51:46;8.98;;;6.75;;
32327;SDS011;18806;51.558;5.100;2022-08-16T10:54:27;11.70;;;7.47;;
32327;SDS011;18806;51.558;5.100;2022-08-16T10:56:58;7.78;;;6.68;;
32327;SDS011;18806;51.558;5.100;2022-08-16T10:59:28;8.35;;;6.25;;
32327;SDS011;18806;51.558;5.100;2022-08-16T11:02:18;11.33;;;7.37;;
32327;SDS011;18806;51.558;5.100;2022-08-16T11:05:06;8.98;;;6.40;;
32327;SDS011;18806;51.558;5.100;2022-08-16T11:07:48;8.40;;;7.22;;
32327;SDS011;18806;51.558;5.100;2022-08-16T11:10:33;10.50;;;6.18;;
32327;SDS011;18806;51.558;5.100;2022-08-16T11:13:31;9.38;;;5.63;;
32327;SDS011;18806;51.558;5.100;2022-08-16T11:16:25;10.20;;;6.00;;
32327;SDS011;18806;51.558;5.100;2022-08-16T11:19:17;7.85;;;6.45;;
32327;SDS011;18806;51.558;5.100;2022-08-16T11:21:44;11.48;;;7.72;;
32327;SDS011;18806;51.558;5.100;2022-08-16T11:24:31;9.32;;;5.60;;
32327;SDS011;18806;51.558;5.100;2022-08-16T11:27:14;8.23;;;5.43;;
32327;SDS011;18806;51.558;5.100;2022-08-16T11:29:49;8.87;;;5.83;;
32327;SDS011;18806;51.558;5.100;2022-08-16T11:32:24;7.25;;;4.90;;
32327;SDS011;18806;51.558;5.100;2022-08-16T11:34:57;8.95;;;4.97;;
32327;SDS011;18806;51.558;5.100;2022-08-16T11:37:35;9.13;;;5.30;;
32327;SDS011;18806;51.558;5.100;2022-08-16T11:40:23;8.73;;;5.00;;
32327;SDS011;18806;51.558;5.100;2022-08-16T11:42:58;11.33;;;5.83;;
32327;SDS011;18806;51.558;5.100;2022-08-16T11:45:25;6.03;;;4.70;;
32327;SDS011;18806;51.558;5.100;2022-08-16T11:47:56;8.77;;;5.20;;
32327;SDS011;18806;51.558;5.100;2022-08-16T11:50:27;7.70;;;5.05;;
32327;SDS011;18806;51.558;5.100;2022-08-16T11:53:01;9.18;;;5.00;;
32327;SDS011;18806;51.558;5.100;2022-08-16T11:55:33;9.65;;;5.80;;
32327;SDS011;18806;51.558;5.100;2022-08-16T11:58:04;7.22;;;5.15;;
32327;SDS011;18806;51.558;5.100;2022-08-16T12:00:38;6.78;;;4.50;;
32327;SDS011;18806;51.558;5.100;2022-08-16T12:03:18;6.75;;;4.88;;
32327;SDS011;18806;51.558;5.100;2022-08-16T12:06:00;5.70;;;4.55;;
32327;SDS011;18806;51.558;5.100;2022-08-16T12:08:31;6.40;;;4.30;;
32327;SDS011;18806;51.558;5.100;2022-08-16T12:11:01;6.82;;;4.30;;
32327;SDS011;18806;51.558;5.100;2022-08-16T12:13:32;7.53;;;4.55;;
32327;SDS011;18806;51.558;5.100;2022-08-16T12:15:59;6.60;;;4.80;;
32327;SDS011;18806;51.558;5.100;2022-08-16T12:18:28;8.90;;;5.25;;
32327;SDS011;18806;51.558;5.100;2022-08-16T12:20:58;9.23;;;5.07;;
32327;SDS011;18806;51.558;5.100;2022-08-16T12:23:29;8.13;;;5.30;;
32327;SDS011;18806;51.558;5.100;2022-08-16T12:25:56;6.88;;;4.80;;
32327;SDS011;18806;51.558;5.100;2022-08-16T12:28:24;6.57;;;4.28;;
32327;SDS011;18806;51.558;5.100;2022-08-16T12:31:11;6.20;;;4.53;;
32327;SDS011;18806;51.558;5.100;2022-08-16T12:33:43;5.63;;;4.40;;
32327;SDS011;18806;51.558;5.100;2022-08-16T12:36:10;7.50;;;4.68;;
32327;SDS011;18806;51.558;5.100;2022-08-16T12:38:40;10.15;;;4.80;;
32327;SDS011;18806;51.558;5.100;2022-08-16T12:41:14;6.47;;;4.60;;
32327;SDS011;18806;51.558;5.100;2022-08-16T12:43:51;6.22;;;4.68;;
32327;SDS011;18806;51.558;5.100;2022-08-16T12:46:26;7.60;;;4.47;;
32327;SDS011;18806;51.558;5.100;2022-08-16T12:48:58;6.63;;;4.50;;
32327;SDS011;18806;51.558;5.100;2022-08-16T12:51:32;7.50;;;4.90;;
32327;SDS011;18806;51.558;5.100;2022-08-16T12:54:20;8.63;;;4.72;;
32327;SDS011;18806;51.558;5.100;2022-08-16T12:56:47;7.70;;;5.45;;
32327;SDS011;18806;51.558;5.100;2022-08-16T12:59:21;8.05;;;4.70;;
32327;SDS011;18806;51.558;5.100;2022-08-16T13:01:57;7.40;;;4.55;;
32327;SDS011;18806;51.558;5.100;2022-08-16T13:04:31;6.10;;;4.63;;
32327;SDS011;18806;51.558;5.100;2022-08-16T13:07:00;5.90;;;4.50;;
32327;SDS011;18806;51.558;5.100;2022-08-16T13:09:33;6.18;;;4.18;;
32327;SDS011;18806;51.558;5.100;2022-08-16T13:12:13;5.43;;;4.28;;
32327;SDS011;18806;51.558;5.100;2022-08-16T13:14:50;9.27;;;5.20;;
32327;SDS011;18806;51.558;5.100;2022-08-16T13:17:19;7.05;;;5.00;;
32327;SDS011;18806;51.558;5.100;2022-08-16T13:19:52;5.55;;;4.30;;
32327;SDS011;18806;51.558;5.100;2022-08-16T13:22:41;6.90;;;4.45;;
32327;SDS011;18806;51.558;5.100;2022-08-16T13:25:09;6.95;;;3.92;;
32327;SDS011;18806;51.558;5.100;2022-08-16T13:27:46;4.90;;;3.83;;
32327;SDS011;18806;51.558;5.100;2022-08-16T13:30:30;5.75;;;3.90;;
32327;SDS011;18806;51.558;5.100;2022-08-16T13:33:06;5.10;;;3.40;;
32327;SDS011;18806;51.558;5.100;2022-08-16T13:35:40;3.92;;;3.30;;
32327;SDS011;18806;51.558;5.100;2022-08-16T13:38:23;4.77;;;3.67;;
32327;SDS011;18806;51.558;5.100;2022-08-16T13:40:53;6.20;;;4.40;;
32327;SDS011;18806;51.558;5.100;2022-08-16T13:43:31;6.85;;;4.10;;
32327;SDS011;18806;51.558;5.100;2022-08-16T13:46:01;7.82;;;4.30;;
32327;SDS011;18806;51.558;5.100;2022-08-16T13:50:56;6.97;;;4.10;;
32327;SDS011;18806;51.558;5.100;2022-08-16T13:53:32;5.73;;;4.00;;
32327;SDS011;18806;51.558;5.100;2022-08-16T13:55:59;9.57;;;5.33;;
32327;SDS011;18806;51.558;5.100;2022-08-16T13:58:26;7.78;;;5.03;;
32327;SDS011;18806;51.558;5.100;2022-08-16T14:01:14;7.50;;;4.77;;
32327;SDS011;18806;51.558;5.100;2022-08-16T14:03:42;7.22;;;4.60;;
32327;SDS011;18806;51.558;5.100;2022-08-16T14:06:10;7.83;;;4.60;;
32327;SDS011;18806;51.558;5.100;2022-08-16T14:08:40;7.57;;;5.45;;
32327;SDS011;18806;51.558;5.100;2022-08-16T14:11:12;8.25;;;4.85;;
32327;SDS011;18806;51.558;5.100;2022-08-16T14:13:40;8.13;;;5.00;;
32327;SDS011;18806;51.558;5.100;2022-08-16T14:16:07;9.93;;;4.82;;
32327;SDS011;18806;51.558;5.100;2022-08-16T14:18:48;7.70;;;4.57;;
32327;SDS011;18806;51.558;5.100;2022-08-16T14:21:20;6.30;;;4.60;;
32327;SDS011;18806;51.558;5.100;2022-08-16T14:23:49;7.35;;;4.20;;
32327;SDS011;18806;51.558;5.100;2022-08-16T14:26:17;8.10;;;4.90;;
32327;SDS011;18806;51.558;5.100;2022-08-16T14:28:46;6.68;;;5.00;;
32327;SDS011;18806;51.558;5.100;2022-08-16T14:31:17;8.57;;;5.07;;
32327;SDS011;18806;51.558;5.100;2022-08-16T14:33:48;8.13;;;4.43;;
32327;SDS011;18806;51.558;5.100;2022-08-16T14:36:16;5.90;;;4.20;;
32327;SDS011;18806;51.558;5.100;2022-08-16T14:38:54;8.20;;;4.55;;
32327;SDS011;18806;51.558;5.100;2022-08-16T14:41:26;8.13;;;4.22;;
32327;SDS011;18806;51.558;5.100;2022-08-16T14:43:56;6.43;;;4.63;;
32327;SDS011;18806;51.558;5.100;2022-08-16T14:46:25;7.25;;;4.50;;
32327;SDS011;18806;51.558;5.100;2022-08-16T14:48:53;6.40;;;4.20;;
32327;SDS011;18806;51.558;5.100;2022-08-16T14:51:20;6.93;;;4.07;;
32327;SDS011;18806;51.558;5.100;2022-08-16T14:53:52;6.35;;;4.10;;
32327;SDS011;18806;51.558;5.100;2022-08-16T14:56:22;7.03;;;4.53;;
32327;SDS011;18806;51.558;5.100;2022-08-16T14:59:08;6.23;;;4.30;;
32327;SDS011;18806;51.558;5.100;2022-08-16T15:01:38;6.95;;;4.47;;
32327;SDS011;18806;51.558;5.100;2022-08-16T15:04:25;5.80;;;4.50;;
32327;SDS011;18806;51.558;5.100;2022-08-16T15:07:06;6.60;;;4.25;;
32327;SDS011;18806;51.558;5.100;2022-08-16T15:09:41;6.15;;;4.43;;
32327;SDS011;18806;51.558;5.100;2022-08-16T15:12:27;7.55;;;4.18;;
32327;SDS011;18806;51.558;5.100;2022-08-16T15:14:59;6.72;;;4.18;;
32327;SDS011;18806;51.558;5.100;2022-08-16T15:17:44;6.32;;;4.22;;
32327;SDS011;18806;51.558;5.100;2022-08-16T15:20:21;9.38;;;3.92;;